createdAt,value
2023-08-11T00:00:05.901Z,18.60
2023-08-11T00:03:27.223Z,18.60
2023-08-11T00:06:49.445Z,18.60
2023-08-11T00:10:13.704Z,18.60
2023-08-11T00:13:35.095Z,18.60
2023-08-11T00:16:57.359Z,18.70
2023-08-11T00:20:18.939Z,18.60
2023-08-11T00:23:41.028Z,18.60
2023-08-11T00:27:04.054Z,18.50
2023-08-11T00:30:25.810Z,18.50
2023-08-11T00:33:47.897Z,18.50
2023-08-11T00:37:09.654Z,18.40
2023-08-11T00:40:31.942Z,18.40
2023-08-11T00:43:54.524Z,18.50
2023-08-11T00:47:18.648Z,18.50
2023-08-11T00:50:40.004Z,18.50
2023-08-11T00:54:02.520Z,18.50
2023-08-11T00:57:25.200Z,18.50
2023-08-11T01:00:48.477Z,18.40
2023-08-11T01:04:09.955Z,18.40
2023-08-11T01:07:40.697Z,18.40
2023-08-11T01:11:18.489Z,18.40
2023-08-11T01:14:51.089Z,18.40
2023-08-11T01:18:14.879Z,18.40
2023-08-11T01:21:37.245Z,18.30
2023-08-11T01:25:00.909Z,18.30
2023-08-11T01:28:23.901Z,17.80
2023-08-11T01:31:45.213Z,17.50
2023-08-11T01:35:06.947Z,17.50
2023-08-11T01:38:28.533Z,17.30
2023-08-11T01:41:52.641Z,17.40
2023-08-11T01:45:16.874Z,17.40
2023-08-11T01:48:41.365Z,17.30
2023-08-11T01:52:04.610Z,17.50
2023-08-11T01:55:27.653Z,17.40
2023-08-11T01:58:50.576Z,17.40
2023-08-11T02:02:11.954Z,17.50
2023-08-11T02:05:33.205Z,17.50
2023-08-11T02:08:54.403Z,17.40
2023-08-11T02:12:15.681Z,17.40
2023-08-11T02:15:38.311Z,17.30
2023-08-11T02:19:00.295Z,17.20
2023-08-11T02:22:22.788Z,17.10
2023-08-11T02:25:43.971Z,17.10
2023-08-11T02:29:06.053Z,17.00
2023-08-11T02:32:28.818Z,17.10
2023-08-11T02:35:50.181Z,16.90
2023-08-11T02:39:11.405Z,16.80
2023-08-11T02:42:32.621Z,16.70
2023-08-11T02:45:53.895Z,16.80
2023-08-11T02:49:16.859Z,16.70
2023-08-11T02:52:38.166Z,16.40
2023-08-11T02:56:02.287Z,16.40
2023-08-11T02:59:23.624Z,16.30
2023-08-11T03:02:47.422Z,16.40
2023-08-11T03:06:12.119Z,16.50
2023-08-11T03:09:33.610Z,16.40
2023-08-11T03:12:54.830Z,16.30
2023-08-11T03:16:16.574Z,16.30
2023-08-11T03:19:38.073Z,16.30
2023-08-11T03:23:00.715Z,16.20
2023-08-11T03:26:22.007Z,16.20
2023-08-11T03:29:43.261Z,16.10
2023-08-11T03:33:04.972Z,16.10
2023-08-11T03:36:28.060Z,15.90
2023-08-11T03:39:50.757Z,16.10
2023-08-11T03:43:11.921Z,16.00
2023-08-11T03:46:33.342Z,16.10
2023-08-11T03:49:54.601Z,16.10
2023-08-11T03:53:15.881Z,16.20
2023-08-11T03:56:39.240Z,16.30
2023-08-11T04:00:00.679Z,16.60
2023-08-11T04:03:24.896Z,16.60
2023-08-11T04:06:47.257Z,16.70
2023-08-11T04:10:11.931Z,16.90
2023-08-11T04:13:34.841Z,17.20
2023-08-11T04:16:56.222Z,17.30
2023-08-11T04:20:17.631Z,17.60
2023-08-11T04:23:39.177Z,17.70
2023-08-11T04:27:00.431Z,17.80
2023-08-11T04:30:25.343Z,18.40
2023-08-11T04:33:46.624Z,18.40
2023-08-11T04:37:07.883Z,18.90
2023-08-11T04:40:29.196Z,19.40
2023-08-11T04:43:50.529Z,19.90
2023-08-11T04:47:13.152Z,20.20
2023-08-11T04:50:34.896Z,20.50
2023-08-11T04:54:01.551Z,20.90
2023-08-11T04:57:23.053Z,21.70
2023-08-11T05:00:44.470Z,22.40
2023-08-11T05:04:09.023Z,22.90
2023-08-11T05:07:30.469Z,23.50
2023-08-11T05:10:51.832Z,23.50
2023-08-11T05:14:15.484Z,24.20
2023-08-11T05:17:36.926Z,25.00
2023-08-11T05:21:01.068Z,25.10
2023-08-11T05:24:23.164Z,25.30
2023-08-11T05:27:44.477Z,25.60
2023-08-11T05:31:07.260Z,26.20
2023-08-11T05:34:28.576Z,26.10
2023-08-11T05:37:51.355Z,27.10
2023-08-11T05:41:12.872Z,27.50
2023-08-11T05:44:34.176Z,27.80
2023-08-11T05:47:55.517Z,28.10
2023-08-11T05:51:17.506Z,28.20
2023-08-11T05:54:42.349Z,28.50
2023-08-11T05:58:03.686Z,28.50
2023-08-11T06:01:25.261Z,28.50
2023-08-11T06:04:46.781Z,28.70
2023-08-11T06:08:08.057Z,29.00
2023-08-11T06:11:33.464Z,29.10
2023-08-11T06:14:54.772Z,29.10
2023-08-11T06:18:16.204Z,28.70
2023-08-11T06:21:38.955Z,29.40
2023-08-11T06:25:00.984Z,29.70
2023-08-11T06:28:23.660Z,29.60
2023-08-11T06:31:45.176Z,30.00
2023-08-11T06:35:07.047Z,29.90
2023-08-11T06:38:28.321Z,30.20
2023-08-11T06:41:49.590Z,30.30
2023-08-11T06:45:12.711Z,30.40
2023-08-11T06:48:34.113Z,30.60
2023-08-11T06:51:55.383Z,31.40
2023-08-11T06:55:16.728Z,32.00
2023-08-11T06:58:37.978Z,32.30
2023-08-11T07:02:00.784Z,32.70
2023-08-11T07:05:22.245Z,33.00
2023-08-11T07:08:43.743Z,32.90
2023-08-11T07:12:05.922Z,33.00
2023-08-11T07:15:27.507Z,33.00
2023-08-11T07:18:50.203Z,32.50
2023-08-11T07:22:11.492Z,33.10
2023-08-11T07:25:32.786Z,33.40
2023-08-11T07:28:54.136Z,33.50
2023-08-11T07:32:15.519Z,33.80
2023-08-11T07:35:38.132Z,33.80
2023-08-11T07:39:12.824Z,33.70
2023-08-11T07:42:40.783Z,33.20
2023-08-11T07:46:04.624Z,33.10
2023-08-11T07:49:26.567Z,33.20
2023-08-11T07:52:49.386Z,33.30
2023-08-11T07:56:10.679Z,33.60
2023-08-11T07:59:32.077Z,33.60
2023-08-11T08:02:54.016Z,34.00
2023-08-11T08:06:15.856Z,34.20
2023-08-11T08:09:40.097Z,34.10
2023-08-11T08:13:01.391Z,34.40
2023-08-11T08:16:22.695Z,35.10
2023-08-11T08:19:43.854Z,35.10
2023-08-11T08:23:05.461Z,34.60
2023-08-11T08:26:28.629Z,34.90
2023-08-11T08:29:50.327Z,34.60
2023-08-11T08:33:12.036Z,35.00
2023-08-11T08:36:33.435Z,35.40
2023-08-11T08:39:54.677Z,35.80
2023-08-11T08:43:20.918Z,35.80
2023-08-11T08:46:47.466Z,35.70
2023-08-11T08:50:17.623Z,36.20
2023-08-11T08:53:39.305Z,36.10
2023-08-11T08:57:02.325Z,36.20
2023-08-11T09:00:25.644Z,36.10
2023-08-11T09:03:49.102Z,35.30
2023-08-11T09:07:11.498Z,35.00
2023-08-11T09:10:33.613Z,35.30
2023-08-11T09:13:55.317Z,35.40
2023-08-11T09:17:18.504Z,35.50
2023-08-11T09:20:47.494Z,35.60
2023-08-11T09:24:13.107Z,35.90
2023-08-11T09:27:37.542Z,36.10
2023-08-11T09:30:59.918Z,35.90
2023-08-11T09:34:22.800Z,35.90
2023-08-11T09:37:45.291Z,35.90
2023-08-11T09:41:10.197Z,35.90
2023-08-11T09:44:32.269Z,36.00
2023-08-11T09:47:56.175Z,35.90
2023-08-11T09:51:22.378Z,35.60
2023-08-11T09:54:46.031Z,35.60
2023-08-11T09:58:10.908Z,35.20
2023-08-11T10:01:35.833Z,35.40
2023-08-11T10:05:04.022Z,35.00
2023-08-11T10:08:30.404Z,35.00
2023-08-11T10:11:53.715Z,34.50
2023-08-11T10:15:18.831Z,34.20
2023-08-11T10:18:41.865Z,34.50
2023-08-11T10:22:04.319Z,34.50
2023-08-11T10:25:28.125Z,34.30
2023-08-11T10:28:50.638Z,33.90
2023-08-11T10:32:12.262Z,34.00
2023-08-11T10:35:35.760Z,33.70
2023-08-11T10:39:02.997Z,33.90
2023-08-11T10:42:26.255Z,33.70
2023-08-11T10:45:47.951Z,33.90
2023-08-11T10:49:33.358Z,34.00
2023-08-11T10:53:06.788Z,33.80
2023-08-11T10:56:30.498Z,33.20
2023-08-11T11:00:11.618Z,33.20
2023-08-11T11:03:35.340Z,33.20
2023-08-11T11:07:00.114Z,33.10
2023-08-11T11:10:22.968Z,32.90
2023-08-11T11:13:47.244Z,32.60
2023-08-11T11:17:10.035Z,32.50
2023-08-11T11:20:32.017Z,32.30
2023-08-11T11:23:54.120Z,32.60
2023-08-11T11:27:20.264Z,32.40
2023-08-11T11:30:41.518Z,31.70
2023-08-11T11:34:04.695Z,31.50
2023-08-11T11:37:27.501Z,31.40
2023-08-11T11:40:50.943Z,31.40
2023-08-11T11:44:12.742Z,31.20
2023-08-11T11:47:34.976Z,31.40
2023-08-11T11:51:04.543Z,31.20
2023-08-11T11:54:29.289Z,31.20
2023-08-11T11:57:50.601Z,31.20
2023-08-11T12:01:13.372Z,31.00
2023-08-11T12:04:35.272Z,30.80
2023-08-11T12:07:58.455Z,30.60
2023-08-11T12:11:26.535Z,30.60
2023-08-11T12:14:47.887Z,30.70
2023-08-11T12:18:09.545Z,30.70
2023-08-11T12:21:31.260Z,30.40
2023-08-11T12:24:54.000Z,30.00
2023-08-11T12:28:15.467Z,29.80
2023-08-11T12:31:37.345Z,29.70
2023-08-11T12:34:58.957Z,29.70
2023-08-11T12:38:22.054Z,29.90
2023-08-11T12:41:44.805Z,30.00
2023-08-11T12:45:06.566Z,29.70
2023-08-11T12:48:27.888Z,29.70
2023-08-11T12:51:52.546Z,29.60
2023-08-11T12:55:17.473Z,29.50
2023-08-11T12:58:40.763Z,29.30
2023-08-11T13:02:02.526Z,29.50
2023-08-11T13:05:24.298Z,29.40
2023-08-11T13:08:45.667Z,29.30
2023-08-11T13:12:13.338Z,29.10
2023-08-11T13:15:37.013Z,28.90
2023-08-11T13:18:58.867Z,29.20
2023-08-11T13:22:20.102Z,29.40
2023-08-11T13:25:42.143Z,29.40
2023-08-11T13:29:03.468Z,29.60
2023-08-11T13:32:26.211Z,29.60
2023-08-11T13:35:48.926Z,29.20
2023-08-11T13:39:10.824Z,29.00
2023-08-11T13:42:31.985Z,29.10
2023-08-11T13:45:54.685Z,29.10
2023-08-11T13:49:17.514Z,29.30
2023-08-11T13:52:38.777Z,29.40
2023-08-11T13:56:00.656Z,29.10
2023-08-11T13:59:21.967Z,29.20
2023-08-11T14:02:43.338Z,29.20
2023-08-11T14:06:06.058Z,29.10
2023-08-11T14:09:27.495Z,28.70
2023-08-11T14:12:48.739Z,28.80
2023-08-11T14:16:10.354Z,28.90
2023-08-11T14:19:31.724Z,29.00
2023-08-11T14:22:54.395Z,28.90
2023-08-11T14:26:15.707Z,28.70
2023-08-11T14:29:37.070Z,28.70
2023-08-11T14:32:58.765Z,28.70
2023-08-11T14:36:20.144Z,28.70
2023-08-11T14:39:42.809Z,28.50
2023-08-11T14:43:04.108Z,28.30
2023-08-11T14:46:25.710Z,28.40
2023-08-11T14:49:47.082Z,28.50
2023-08-11T14:53:08.374Z,28.60
2023-08-11T14:56:31.152Z,28.40
2023-08-11T14:59:52.386Z,28.40
2023-08-11T15:03:13.926Z,28.40
2023-08-11T15:06:35.364Z,28.20
2023-08-11T15:09:56.755Z,28.20
2023-08-11T15:13:19.508Z,28.20
2023-08-11T15:16:41.036Z,28.20
2023-08-11T15:20:02.337Z,28.20
2023-08-11T15:23:23.541Z,28.20
2023-08-11T15:26:44.796Z,28.10
2023-08-11T15:30:08.177Z,28.20
2023-08-11T15:33:29.582Z,28.10
2023-08-11T15:36:50.848Z,28.10
2023-08-11T15:40:12.735Z,27.90
2023-08-11T15:43:34.023Z,27.80
2023-08-11T15:46:56.641Z,27.70
2023-08-11T15:50:17.937Z,27.90
2023-08-11T15:53:39.453Z,27.90
2023-08-11T15:57:00.724Z,27.70
2023-08-11T16:00:22.041Z,27.80
2023-08-11T16:03:44.806Z,27.90
2023-08-11T16:07:06.299Z,27.80
2023-08-11T16:10:33.005Z,27.70
2023-08-11T16:13:54.597Z,27.60
2023-08-11T16:17:15.904Z,27.40
2023-08-11T16:20:38.948Z,27.40
2023-08-11T16:24:00.317Z,27.50
2023-08-11T16:27:22.214Z,27.50
2023-08-11T16:30:43.559Z,27.40
2023-08-11T16:34:05.115Z,27.40
2023-08-11T16:37:27.721Z,27.30
2023-08-11T16:40:49.119Z,27.40
2023-08-11T16:44:11.214Z,27.30
2023-08-11T16:47:32.581Z,27.20
2023-08-11T16:50:55.218Z,27.20
2023-08-11T16:54:19.567Z,27.10
2023-08-11T16:57:41.010Z,27.10
2023-08-11T17:01:03.963Z,26.90
2023-08-11T17:04:25.319Z,26.70
2023-08-11T17:07:46.718Z,26.60
2023-08-11T17:11:09.570Z,26.40
2023-08-11T17:14:30.938Z,26.30
2023-08-11T17:17:52.355Z,26.20
2023-08-11T17:21:14.221Z,26.00
2023-08-11T17:24:35.825Z,25.90
2023-08-11T17:27:58.766Z,25.80
2023-08-11T17:31:20.067Z,25.70
2023-08-11T17:34:56.496Z,25.60
2023-08-11T17:38:19.588Z,25.50
2023-08-11T17:41:40.978Z,25.20
2023-08-11T17:45:03.712Z,25.20
2023-08-11T17:48:25.131Z,25.20
2023-08-11T17:51:46.351Z,25.10
2023-08-11T17:55:07.992Z,25.00
2023-08-11T17:58:30.042Z,25.00
2023-08-11T18:01:53.348Z,24.90
2023-08-11T18:05:14.662Z,24.80
2023-08-11T18:08:35.930Z,24.80
2023-08-11T18:11:57.396Z,24.80
2023-08-11T18:15:18.644Z,24.70
2023-08-11T18:18:43.491Z,24.70
2023-08-11T18:22:04.872Z,24.60
2023-08-11T18:25:26.379Z,24.50
2023-08-11T18:28:48.589Z,24.30
2023-08-11T18:32:10.490Z,24.30
2023-08-11T18:35:33.512Z,24.30
2023-08-11T18:38:54.870Z,24.20
2023-08-11T18:42:16.161Z,24.20
2023-08-11T18:45:37.531Z,24.00
2023-08-11T18:48:59.626Z,23.90
2023-08-11T18:52:22.401Z,23.90
2023-08-11T18:55:43.706Z,23.80
2023-08-11T18:59:05.088Z,23.70
2023-08-11T19:02:26.566Z,23.60
2023-08-11T19:05:48.029Z,23.60
2023-08-11T19:09:11.506Z,23.60
2023-08-11T19:12:33.063Z,23.50
2023-08-11T19:15:54.432Z,23.40
2023-08-11T19:19:16.341Z,23.20
2023-08-11T19:22:37.798Z,23.20
2023-08-11T19:26:01.303Z,23.10
2023-08-11T19:29:23.222Z,23.10
2023-08-11T19:32:44.680Z,23.00
2023-08-11T19:36:06.119Z,23.00
2023-08-11T19:39:27.432Z,22.90
2023-08-11T19:42:50.043Z,22.90
2023-08-11T19:46:11.444Z,22.80
2023-08-11T19:49:32.734Z,22.90
2023-08-11T19:52:54.259Z,22.90
2023-08-11T19:56:15.488Z,22.80
2023-08-11T19:59:38.184Z,22.70
2023-08-11T20:02:59.592Z,22.50
2023-08-11T20:06:21.003Z,22.40
2023-08-11T20:09:42.278Z,22.50
2023-08-11T20:13:03.665Z,22.60
2023-08-11T20:16:26.536Z,22.60
2023-08-11T20:19:47.838Z,22.60
2023-08-11T20:23:09.103Z,22.40
2023-08-11T20:26:30.383Z,22.30
2023-08-11T20:29:51.652Z,22.20
2023-08-11T20:33:14.266Z,22.20
2023-08-11T20:36:39.093Z,22.10
2023-08-11T20:40:00.417Z,22.10
2023-08-11T20:43:21.724Z,22.10
2023-08-11T20:46:43.144Z,21.90
2023-08-11T20:50:06.201Z,21.80
2023-08-11T20:53:27.519Z,22.00
2023-08-11T20:56:48.773Z,22.00
2023-08-11T21:00:10.508Z,21.90
2023-08-11T21:03:31.822Z,21.90
2023-08-11T21:06:54.829Z,22.00
2023-08-11T21:10:16.390Z,21.80
2023-08-11T21:13:37.827Z,21.70
2023-08-11T21:17:02.494Z,21.70
2023-08-11T21:20:24.646Z,21.60
2023-08-11T21:23:47.331Z,21.50
2023-08-11T21:27:08.789Z,21.40
2023-08-11T21:30:30.694Z,21.40
2023-08-11T21:33:59.902Z,21.30
2023-08-11T21:37:21.194Z,21.30
2023-08-11T21:40:44.018Z,21.20
2023-08-11T21:44:05.782Z,21.20
2023-08-11T21:47:27.109Z,21.10
2023-08-11T21:50:48.495Z,21.00
2023-08-11T21:54:12.749Z,21.00
2023-08-11T21:57:35.535Z,20.80
2023-08-11T22:00:57.559Z,20.90
2023-08-11T22:04:18.844Z,20.90
2023-08-11T22:07:40.205Z,21.00
2023-08-11T22:11:02.556Z,20.80
2023-08-11T22:14:25.338Z,20.60
2023-08-11T22:17:46.789Z,20.50
2023-08-11T22:21:08.172Z,20.60
2023-08-11T22:24:40.488Z,20.60
2023-08-11T22:28:03.189Z,20.60
2023-08-11T22:31:26.004Z,20.70
2023-08-11T22:34:52.954Z,20.60
2023-08-11T22:38:14.421Z,20.50
2023-08-11T22:41:35.827Z,20.50
2023-08-11T22:44:57.366Z,20.40
2023-08-11T22:48:20.136Z,20.40
2023-08-11T22:51:41.403Z,20.40
2023-08-11T22:55:02.718Z,20.30
2023-08-11T22:58:23.960Z,20.30
2023-08-11T23:01:45.509Z,20.20
2023-08-11T23:05:10.429Z,20.20
2023-08-11T23:08:33.193Z,20.20
2023-08-11T23:11:54.514Z,20.10
2023-08-11T23:15:15.771Z,19.90
2023-08-11T23:18:36.957Z,19.90
2023-08-11T23:21:59.617Z,19.80
2023-08-11T23:25:20.893Z,19.70
2023-08-11T23:28:42.191Z,19.80
2023-08-11T23:32:03.495Z,19.80
2023-08-11T23:35:25.207Z,19.80
2023-08-11T23:38:48.878Z,19.70
2023-08-11T23:42:10.234Z,19.60
2023-08-11T23:45:31.685Z,19.60
2023-08-11T23:48:52.970Z,19.60
2023-08-11T23:52:14.829Z,19.60
2023-08-11T23:55:45.095Z,19.50
2023-08-11T23:59:06.482Z,19.40
